Time;durP1;ratioP1;P1;durP2;ratioP2;P2;SDS_P1;SDS_P2;PMS_P1;PMS_P2;Temp;Humidity;BMP_temperature;BMP_pressure;BME280_temperature;BME280_humidity;BME280_pressure;Samples;Min_cycle;Max_cycle;Signal;HPM_P1;HPM_P2
2022/12/22 03:27:19;;;;;;;154.23;52.83;;;8.80;99.90;;;;;;4901069;29;20522;-77
2022/12/22 03:29:44;;;;;;;82.50;46.15;;;8.80;99.90;;;;;;4901873;29;20052;-77
2022/12/22 03:32:10;;;;;;;220.38;58.33;;;8.80;99.90;;;;;;4910979;29;20055;-77
2022/12/22 03:34:39;;;;;;;92.10;45.97;;;8.80;99.90;;;;;;4904107;29;20048;-77
2022/12/22 03:37:04;;;;;;;147.00;52.22;;;8.80;99.90;;;;;;4892208;29;20040;-78
2022/12/22 03:39:30;;;;;;;99.07;47.97;;;8.80;99.90;;;;;;4910663;29;20502;-77
2022/12/22 03:47:25;;;;;;;98.13;48.33;;;8.80;99.90;;;;;;4913357;29;20057;-77
2022/12/22 03:49:51;;;;;;;282.50;66.40;;;8.80;99.90;;;;;;4918570;29;20040;-77
2022/12/22 03:52:17;;;;;;;174.85;59.13;;;8.80;99.90;;;;;;4896883;29;20099;-77
2022/12/22 03:54:43;;;;;;;214.55;62.47;;;8.80;99.90;;;;;;4913941;29;20079;-77
2022/12/22 03:57:08;;;;;;;176.52;57.65;;;8.80;99.90;;;;;;4905802;29;20043;-77
2022/12/22 03:59:34;;;;;;;133.35;52.67;;;8.80;99.90;;;;;;4903790;29;20058;-77
2022/12/22 04:02:00;;;;;;;127.93;50.95;;;8.80;99.90;;;;;;4925999;29;20047;-77
2022/12/22 04:04:26;;;;;;;294.42;60.20;;;8.80;99.90;;;;;;4915896;29;21109;-77
2022/12/22 04:06:52;;;;;;;431.88;76.70;;;8.80;99.90;;;;;;4918491;29;20090;-77
2022/12/22 04:09:19;;;;;;;390.02;71.80;;;8.80;99.90;;;;;;4909991;29;20051;-77
2022/12/22 04:14:29;;;;;;;155.73;52.45;;;8.80;99.90;;;;;;4902782;29;20127;-77
2022/12/22 04:16:55;;;;;;;264.02;61.30;;;8.80;99.90;;;;;;4929312;28;20126;-77
2022/12/22 04:19:24;;;;;;;280.92;63.42;;;8.80;99.90;;;;;;4913958;29;20558;-77
2022/12/22 04:21:49;;;;;;;148.05;50.40;;;8.80;99.90;;;;;;4919378;29;20043;-77
2022/12/22 04:24:15;;;;;;;223.02;57.35;;;8.80;99.90;;;;;;4923374;29;20047;-77
2022/12/22 04:26:41;;;;;;;513.10;81.15;;;8.80;99.90;;;;;;4925757;29;20130;-77
2022/12/22 04:29:07;;;;;;;524.13;78.88;;;8.80;99.90;;;;;;4923776;29;20332;-77
2022/12/22 04:31:34;;;;;;;447.30;68.05;;;8.80;99.90;;;;;;4923506;29;20048;-77
2022/12/22 04:33:59;;;;;;;425.52;71.68;;;8.70;99.90;;;;;;4924248;29;20139;-77
2022/12/22 04:36:25;;;;;;;161.25;51.58;;;8.80;99.90;;;;;;4913006;29;20481;-77
2022/12/22 04:38:51;;;;;;;134.63;50.55;;;8.80;99.90;;;;;;4915766;29;20040;-77
2022/12/22 04:41:20;;;;;;;317.42;64.82;;;8.80;99.90;;;;;;4901439;29;20406;-77
2022/12/22 04:43:46;;;;;;;102.22;46.53;;;8.70;99.90;;;;;;4898611;29;20107;-77
2022/12/22 04:46:12;;;;;;;81.40;44.67;;;8.70;99.90;;;;;;4908893;28;20051;-77
2022/12/22 04:48:37;;;;;;;118.80;49.60;;;8.80;99.90;;;;;;4896233;29;20099;-77
2022/12/22 04:51:06;;;;;;;129.73;50.70;;;8.80;99.90;;;;;;4905176;29;20402;-77
2022/12/22 04:53:32;;;;;;;109.35;47.42;;;8.70;99.90;;;;;;4913751;29;20047;-77
2022/12/22 04:56:04;;;;;;;306.95;64.40;;;8.70;99.90;;;;;;4917631;28;20058;-76
2022/12/22 04:58:35;;;;;;;219.80;57.72;;;8.70;99.90;;;;;;4895489;29;20083;-76
2022/12/22 05:01:12;;;;;;;90.18;43.85;;;8.80;99.90;;;;;;4917930;29;20137;-77
2022/12/22 05:03:38;;;;;;;111.75;47.83;;;8.80;99.90;;;;;;4895248;29;20059;-77
2022/12/22 05:06:05;;;;;;;129.82;48.30;;;8.80;99.90;;;;;;4921482;29;20055;-77
2022/12/22 05:08:34;;;;;;;94.30;44.42;;;8.70;99.90;;;;;;4918602;29;20047;-77
2022/12/22 05:11:01;;;;;;;198.25;54.83;;;8.80;99.90;;;;;;4921358;29;20055;-77
2022/12/22 05:13:28;;;;;;;218.40;56.90;;;8.80;99.90;;;;;;4914108;29;20087;-77
2022/12/22 05:15:54;;;;;;;129.10;49.42;;;8.70;99.90;;;;;;4884121;29;20422;-77
2022/12/22 05:18:20;;;;;;;223.90;55.65;;;8.80;99.90;;;;;;4899467;29;20044;-77
2022/12/22 05:20:45;;;;;;;208.75;55.38;;;8.70;99.90;;;;;;4904379;29;20035;-77
2022/12/22 05:23:11;;;;;;;166.18;51.35;;;8.80;99.90;;;;;;4917190;29;20044;-77
2022/12/22 05:25:37;;;;;;;129.90;46.60;;;8.80;99.90;;;;;;4925654;29;20050;-76
2022/12/22 05:28:03;;;;;;;114.72;46.40;;;8.80;99.90;;;;;;4903277;29;20043;-77
2022/12/22 05:30:29;;;;;;;134.73;49.72;;;8.80;99.90;;;;;;4908356;29;20047;-77
2022/12/22 05:32:55;;;;;;;153.55;52.53;;;8.80;99.90;;;;;;4901362;29;20056;-76
2022/12/22 05:35:20;;;;;;;230.73;56.72;;;8.80;99.90;;;;;;4912355;29;20055;-77
2022/12/22 05:37:46;;;;;;;225.48;58.80;;;8.80;99.90;;;;;;4905599;29;20062;-76
2022/12/22 05:40:12;;;;;;;178.98;54.20;;;8.80;99.90;;;;;;4910630;29;20040;-77
2022/12/22 05:42:38;;;;;;;148.05;52.80;;;8.80;99.90;;;;;;4910095;29;20059;-76
2022/12/22 05:45:16;;;;;;;175.30;53.47;;;8.80;99.90;;;;;;4913284;28;20044;-77
2022/12/22 05:47:44;;;;;;;217.68;58.80;;;8.80;99.90;;;;;;4910669;29;20162;-76
2022/12/22 05:50:11;;;;;;;104.78;46.22;;;8.80;99.90;;;;;;4909837;29;20371;-77
2022/12/22 05:52:41;;;;;;;93.15;41.72;;;8.80;99.90;;;;;;4898921;29;20044;-77
2022/12/22 05:55:08;;;;;;;114.13;45.05;;;8.80;99.90;;;;;;4910825;29;20495;-77
2022/12/22 05:57:37;;;;;;;150.57;51.75;;;8.80;99.90;;;;;;4909945;29;20059;-78
2022/12/22 06:00:08;;;;;;;138.80;49.95;;;8.80;99.90;;;;;;4928101;29;20126;-78
2022/12/22 06:02:34;;;;;;;142.18;51.42;;;8.80;99.90;;;;;;4916611;29;20487;-78
2022/12/22 06:05:00;;;;;;;111.15;47.00;;;8.80;99.90;;;;;;4913120;29;20223;-78
2022/12/22 06:07:26;;;;;;;108.97;46.15;;;8.80;99.90;;;;;;4901605;29;20052;-78
2022/12/22 06:09:52;;;;;;;122.00;47.92;;;8.80;99.90;;;;;;4923718;29;20694;-78
2022/12/22 06:12:17;;;;;;;88.57;42.22;;;8.70;99.90;;;;;;4906124;28;20107;-78
2022/12/22 06:14:43;;;;;;;98.30;43.60;;;8.70;99.90;;;;;;4898830;29;20372;-77
2022/12/22 06:17:09;;;;;;;83.18;41.90;;;8.70;99.90;;;;;;4918400;29;20446;-78
2022/12/22 06:19:37;;;;;;;90.22;41.78;;;8.70;99.90;;;;;;4914295;29;20100;-78
2022/12/22 06:22:03;;;;;;;88.45;41.03;;;8.60;99.90;;;;;;4913403;29;20681;-78
2022/12/22 06:24:29;;;;;;;84.60;40.50;;;8.60;99.90;;;;;;4915599;29;20424;-77
2022/12/22 06:26:55;;;;;;;107.40;43.75;;;8.60;99.90;;;;;;4891386;29;20043;-77
2022/12/22 06:29:20;;;;;;;103.70;43.13;;;8.60;99.90;;;;;;4925554;29;20403;-78
2022/12/22 06:31:50;;;;;;;170.02;50.38;;;8.60;99.90;;;;;;4915348;29;20134;-77
2022/12/22 06:34:20;;;;;;;100.72;41.25;;;8.50;99.90;;;;;;4901767;29;20096;-77
2022/12/22 06:36:46;;;;;;;86.15;40.47;;;8.50;99.90;;;;;;4880677;29;20136;-76
2022/12/22 06:39:13;;;;;;;95.82;40.35;;;8.50;99.90;;;;;;4906346;29;20131;-77
2022/12/22 06:44:27;;;;;;;114.43;41.97;;;8.50;99.90;;;;;;4919429;29;19930;-76
2022/12/22 06:46:52;;;;;;;101.47;38.83;;;8.40;99.90;;;;;;4893729;29;20051;-77
2022/12/22 06:49:19;;;;;;;112.80;40.70;;;8.30;99.90;;;;;;4917497;29;20057;-78
2022/12/22 06:51:51;;;;;;;120.10;41.50;;;8.30;99.90;;;;;;4869810;29;20542;-77
2022/12/22 06:54:17;;;;;;;134.43;41.70;;;8.10;99.90;;;;;;4880665;29;20052;-77
2022/12/22 06:56:42;;;;;;;146.75;40.63;;;8.10;99.90;;;;;;4886486;29;20313;-77
2022/12/22 06:59:08;;;;;;;115.32;38.63;;;8.00;99.90;;;;;;4923194;29;20390;-77
2022/12/22 07:01:34;;;;;;;65.35;34.38;;;7.90;99.90;;;;;;4891010;29;20067;-77
2022/12/22 07:04:00;;;;;;;117.78;40.08;;;7.90;99.90;;;;;;4912309;29;20080;-77
2022/12/22 07:06:26;;;;;;;123.18;38.08;;;7.70;99.90;;;;;;4884923;29;20088;-76
2022/12/22 07:08:52;;;;;;;168.95;40.08;;;7.70;99.90;;;;;;4881148;29;20226;-77
2022/12/22 07:11:18;;;;;;;311.60;49.72;;;7.60;99.90;;;;;;4924277;29;20044;-77
2022/12/22 07:13:44;;;;;;;370.13;62.40;;;7.60;99.90;;;;;;4912105;29;20045;-77
2022/12/22 07:16:10;;;;;;;106.75;38.03;;;7.50;99.90;;;;;;4907279;29;20052;-77
2022/12/22 07:18:38;;;;;;;69.18;34.92;;;7.50;99.90;;;;;;4917770;28;20045;-77
2022/12/22 07:21:07;;;;;;;110.80;37.53;;;7.50;99.90;;;;;;4903596;29;20041;-77
2022/12/22 07:23:33;;;;;;;112.82;39.80;;;7.40;99.90;;;;;;4883477;29;20053;-77
2022/12/22 07:26:00;;;;;;;143.73;43.10;;;7.40;99.90;;;;;;4922776;29;20040;-76
2022/12/22 07:28:25;;;;;;;125.32;40.88;;;7.30;99.90;;;;;;4895767;29;20051;-77
2022/12/22 07:30:52;;;;;;;103.90;39.85;;;7.30;99.90;;;;;;4908970;29;20056;-78
2022/12/22 07:33:21;;;;;;;108.38;39.25;;;7.30;99.90;;;;;;4901619;29;20103;-87
2022/12/22 07:35:47;;;;;;;150.57;44.40;;;7.30;99.90;;;;;;4895801;29;20052;-88
2022/12/22 07:38:13;;;;;;;138.85;43.50;;;7.40;99.90;;;;;;4927741;29;20086;-88
2022/12/22 07:40:38;;;;;;;128.73;42.58;;;7.50;99.90;;;;;;4922447;29;20044;-87
2022/12/22 07:43:05;;;;;;;121.03;41.83;;;7.50;99.90;;;;;;4897185;29;20047;-88
2022/12/22 07:45:35;;;;;;;124.22;42.05;;;7.50;99.90;;;;;;4897115;29;20082;-88
2022/12/22 07:50:23;;;;;;;128.03;41.80;;;7.70;99.90;;;;;;4896642;29;20048;-86
2022/12/22 07:50:49;;;;;;;149.15;45.22;;;7.70;99.90;;;;;;4915054;29;20122;-86
2022/12/22 07:53:14;;;;;;;141.40;43.92;;;7.70;99.90;;;;;;4912535;29;20130;-85
2022/12/22 07:55:40;;;;;;;102.18;36.65;;;7.70;99.90;;;;;;4912843;29;20040;-86
2022/12/22 07:58:06;;;;;;;109.53;40.15;;;7.70;99.90;;;;;;4911949;29;20048;-86
2022/12/22 08:00:32;;;;;;;98.15;35.28;;;7.70;99.90;;;;;;4900512;29;20194;-86
2022/12/22 08:02:59;;;;;;;100.10;36.95;;;7.70;99.90;;;;;;4904333;29;20040;-85
2022/12/22 08:05:25;;;;;;;128.40;38.33;;;7.60;99.90;;;;;;4912441;28;20050;-86
2022/12/22 08:07:51;;;;;;;118.00;38.33;;;7.70;99.90;;;;;;4913242;29;20498;-86
2022/12/22 08:10:18;;;;;;;148.35;40.90;;;7.60;99.90;;;;;;4902577;29;20040;-86
2022/12/22 08:12:48;;;;;;;121.45;38.75;;;7.60;99.90;;;;;;4910281;29;20107;-86
2022/12/22 08:15:14;;;;;;;103.18;37.25;;;7.60;99.90;;;;;;4887042;29;20047;-87
2022/12/22 08:17:39;;;;;;;94.22;35.03;;;7.60;99.90;;;;;;4917189;29;20070;-85
2022/12/22 08:20:06;;;;;;;114.95;36.92;;;7.60;99.90;;;;;;4909125;29;20078;-85
2022/12/22 08:22:34;;;;;;;114.65;36.42;;;7.50;99.90;;;;;;4926868;29;20054;-86
2022/12/22 08:25:00;;;;;;;83.47;34.17;;;7.50;99.90;;;;;;4908781;29;20050;-86
2022/12/22 08:27:30;;;;;;;99.30;34.38;;;7.50;99.90;;;;;;4906794;29;20040;-86
2022/12/22 08:30:04;;;;;;;104.50;34.63;;;7.50;99.90;;;;;;4928615;29;20051;-86
2022/12/22 08:32:30;;;;;;;67.80;30.58;;;7.50;99.90;;;;;;4919864;29;20055;-86
2022/12/22 08:34:56;;;;;;;90.50;33.72;;;7.50;99.90;;;;;;4890086;29;20063;-86
2022/12/22 08:37:26;;;;;;;113.47;35.03;;;7.40;99.90;;;;;;4907146;29;20066;-86
2022/12/22 08:39:56;;;;;;;95.85;33.75;;;7.40;99.90;;;;;;4911033;29;20194;-86
2022/12/22 08:42:24;;;;;;;109.90;37.17;;;7.40;99.90;;;;;;4894611;29;20136;-85
2022/12/22 08:44:52;;;;;;;119.75;37.58;;;7.40;99.90;;;;;;4908949;29;20514;-86
2022/12/22 08:47:21;;;;;;;90.78;31.83;;;7.40;99.90;;;;;;4901504;29;20549;-86
2022/12/22 08:49:48;;;;;;;89.70;33.30;;;7.40;99.90;;;;;;4914689;29;20393;-86
2022/12/22 08:52:15;;;;;;;82.72;31.42;;;7.40;99.90;;;;;;4891846;29;20079;-86
2022/12/22 08:54:41;;;;;;;106.50;34.17;;;7.40;99.90;;;;;;4901620;29;20126;-86
2022/12/22 08:57:07;;;;;;;154.25;35.72;;;7.30;99.90;;;;;;4917925;29;20519;-86
2022/12/22 08:59:33;;;;;;;222.30;39.90;;;7.30;99.90;;;;;;4915782;29;20131;-86
2022/12/22 09:02:03;;;;;;;274.73;45.15;;;7.30;99.90;;;;;;4899933;29;20328;-86
2022/12/22 09:04:32;;;;;;;262.08;43.75;;;7.30;99.90;;;;;;4911562;29;20056;-86
2022/12/22 09:06:58;;;;;;;235.73;41.45;;;7.20;99.90;;;;;;4911261;29;20540;-85
2022/12/22 09:09:24;;;;;;;215.88;39.25;;;7.20;99.90;;;;;;4922056;29;20066;-87
2022/12/22 09:11:50;;;;;;;196.10;36.13;;;7.20;99.90;;;;;;4907930;29;20056;-86
2022/12/22 09:14:16;;;;;;;204.43;37.42;;;7.20;99.90;;;;;;4902958;29;20036;-85
2022/12/22 09:16:43;;;;;;;201.63;38.70;;;7.20;99.90;;;;;;4904951;29;20525;-86
2022/12/22 09:19:09;;;;;;;182.85;35.42;;;7.20;99.90;;;;;;4912064;28;20044;-85
2022/12/22 09:21:35;;;;;;;207.38;37.78;;;7.20;99.90;;;;;;4916934;29;20437;-86
2022/12/22 09:24:06;;;;;;;94.47;30.27;;;7.20;99.90;;;;;;4932997;28;20043;-85
2022/12/22 09:26:35;;;;;;;173.75;34.33;;;7.20;99.90;;;;;;4914034;29;20501;-85
2022/12/22 09:29:04;;;;;;;192.77;36.97;;;7.20;99.90;;;;;;4908003;29;20529;-85
2022/12/22 09:31:31;;;;;;;204.55;37.17;;;7.20;99.90;;;;;;4901656;29;20059;-87
2022/12/22 09:33:57;;;;;;;85.03;28.20;;;7.20;99.90;;;;;;4893624;29;20056;-86
2022/12/22 09:36:27;;;;;;;149.48;31.40;;;7.20;99.90;;;;;;4895762;29;20051;-87
2022/12/22 09:38:53;;;;;;;188.27;33.97;;;7.20;99.90;;;;;;4926926;29;20269;-87
2022/12/22 09:41:50;;;;;;;166.30;32.25;;;7.20;99.90;;;;;;4894523;29;20075;-87
2022/12/22 09:44:22;;;;;;;99.72;26.40;;;7.20;99.90;;;;;;4873560;29;21599;-87
2022/12/22 09:46:49;;;;;;;106.57;28.00;;;7.20;99.90;;;;;;4906331;29;20048;-87
2022/12/22 09:49:19;;;;;;;144.13;32.20;;;7.20;99.90;;;;;;4907801;29;20054;-87
2022/12/22 09:51:46;;;;;;;;;;;7.20;99.90;;;;;;4904368;29;20526;-88
2022/12/22 09:54:14;;;;;;;91.35;27.00;;;7.10;99.90;;;;;;4908012;29;19986;-86
2022/12/22 09:56:40;;;;;;;74.90;25.80;;;7.00;99.90;;;;;;4924853;29;20055;-87
2022/12/22 09:59:18;;;;;;;81.57;26.63;;;7.00;99.90;;;;;;4898417;29;20119;-86
2022/12/22 10:02:21;;;;;;;96.00;27.17;;;7.00;99.90;;;;;;4926409;29;20079;-86
2022/12/22 10:04:57;;;;;;;63.85;23.58;;;7.00;99.90;;;;;;4905715;29;20146;-86
2022/12/22 10:07:34;;;;;;;59.75;24.25;;;7.00;99.90;;;;;;4901149;29;20048;-85
2022/12/22 10:10:23;;;;;;;100.97;27.73;;;7.00;99.90;;;;;;4902108;29;20131;-86
2022/12/22 10:12:55;;;;;;;103.63;28.55;;;7.00;99.90;;;;;;4924449;29;20048;-87
2022/12/22 10:15:21;;;;;;;73.88;24.65;;;7.00;99.90;;;;;;4920922;29;20402;-87
2022/12/22 10:17:50;;;;;;;68.93;24.25;;;7.00;99.90;;;;;;4913657;29;20585;-86
2022/12/22 10:20:24;;;;;;;91.15;26.67;;;7.00;99.90;;;;;;4899717;29;20040;-87
2022/12/22 10:22:52;;;;;;;74.18;24.80;;;7.00;99.90;;;;;;4906612;29;20036;-87
2022/12/22 10:25:33;;;;;;;65.68;24.02;;;7.00;99.90;;;;;;4929699;29;20130;-86
2022/12/22 10:28:05;;;;;;;55.95;23.88;;;7.00;99.90;;;;;;4907725;29;20052;-87
2022/12/22 10:30:34;;;;;;;50.75;21.38;;;7.00;99.90;;;;;;4917604;29;20146;-87
2022/12/22 10:33:06;;;;;;;65.90;24.30;;;7.10;99.90;;;;;;4928947;29;20154;-86
2022/12/22 10:35:50;;;;;;;54.88;22.27;;;7.10;99.90;;;;;;4905653;29;20060;-85
2022/12/22 10:38:32;;;;;;;51.50;22.50;;;7.20;99.90;;;;;;4907495;29;20043;-85
2022/12/22 10:41:21;;;;;;;53.50;22.13;;;7.20;99.90;;;;;;4916497;29;20048;-85
2022/12/22 10:43:49;;;;;;;44.53;21.05;;;7.20;99.90;;;;;;4897515;29;20150;-85
2022/12/22 10:46:16;;;;;;;46.65;21.75;;;7.20;99.90;;;;;;4930836;29;20355;-85
2022/12/22 10:48:42;;;;;;;48.15;22.15;;;7.20;99.90;;;;;;4880468;29;20499;-84
2022/12/22 10:51:11;;;;;;;64.38;24.38;;;7.30;99.90;;;;;;4911998;29;20090;-84
2022/12/22 10:53:43;;;;;;;55.08;23.17;;;7.30;99.90;;;;;;4913771;29;20036;-85
2022/12/22 10:56:24;;;;;;;50.20;23.25;;;7.40;99.90;;;;;;4928526;29;20135;-86
2022/12/22 10:58:56;;;;;;;48.15;23.40;;;7.40;99.90;;;;;;4910733;29;20036;-87
2022/12/22 11:01:30;;;;;;;41.92;20.55;;;7.40;99.90;;;;;;4921048;29;20373;-87
2022/12/22 11:04:13;;;;;;;43.75;20.50;;;7.50;99.90;;;;;;4902532;29;20042;-86
2022/12/22 11:06:41;;;;;;;35.88;18.58;;;7.50;99.90;;;;;;4894787;29;20052;-86
2022/12/22 11:09:09;;;;;;;32.00;19.13;;;7.50;99.90;;;;;;4900550;29;20585;-87
2022/12/22 11:12:10;;;;;;;37.72;19.98;;;7.50;99.90;;;;;;4910933;29;20079;-88
2022/12/22 11:15:06;;;;;;;38.55;20.15;;;7.60;99.90;;;;;;4887922;29;20059;-87
2022/12/22 11:17:41;;;;;;;35.90;19.65;;;7.60;99.90;;;;;;4916025;29;20052;-87
2022/12/22 11:20:44;;;;;;;39.03;20.38;;;7.60;99.90;;;;;;4898776;29;20044;-87
2022/12/22 11:23:36;;;;;;;33.25;18.67;;;7.60;99.90;;;;;;4910731;29;20047;-87
2022/12/22 11:26:08;;;;;;;29.42;18.55;;;7.60;99.90;;;;;;4910651;29;20048;-87
2022/12/22 11:29:11;;;;;;;27.58;17.02;;;7.70;99.90;;;;;;4916647;28;20165;-87
2022/12/22 11:31:58;;;;;;;26.92;17.88;;;7.60;99.90;;;;;;4915729;29;20048;-85
2022/12/22 11:34:30;;;;;;;35.30;19.33;;;7.60;99.90;;;;;;4896109;29;20056;-87
2022/12/22 11:37:00;;;;;;;29.55;18.50;;;7.50;99.90;;;;;;4922107;29;20075;-87
2022/12/22 11:39:47;;;;;;;30.83;17.83;;;7.60;99.90;;;;;;4912973;29;20152;-87
2022/12/22 11:42:41;;;;;;;25.98;17.10;;;7.50;99.90;;;;;;4930754;29;20054;-87
2022/12/22 11:45:31;;;;;;;28.52;18.05;;;7.50;99.90;;;;;;4899480;29;20040;-87
2022/12/22 11:48:16;;;;;;;32.28;18.60;;;7.50;99.90;;;;;;4913333;29;20047;-86
2022/12/22 11:50:48;;;;;;;29.55;19.15;;;7.50;99.90;;;;;;4907024;29;20071;-87
2022/12/22 11:53:43;;;;;;;29.77;18.17;;;7.50;99.90;;;;;;4922644;28;20054;-87
2022/12/22 11:56:25;;;;;;;29.92;19.00;;;7.60;99.90;;;;;;4922468;29;20051;-87
2022/12/22 11:59:04;;;;;;;29.20;19.40;;;7.60;99.90;;;;;;4884144;29;20087;-87
2022/12/22 12:01:32;;;;;;;26.17;17.77;;;7.70;99.90;;;;;;4914301;29;20048;-87
2022/12/22 12:04:07;;;;;;;29.33;17.92;;;7.70;99.90;;;;;;4907611;29;20147;-86
2022/12/22 12:07:15;;;;;;;28.60;18.35;;;7.70;99.90;;;;;;4913578;29;20415;-86
2022/12/22 12:10:08;;;;;;;22.75;16.58;;;7.70;99.90;;;;;;4900046;29;20082;-87
2022/12/22 12:13:00;;;;;;;22.27;15.55;;;7.80;99.90;;;;;;4934607;29;20070;-86
2022/12/22 12:15:33;;;;;;;23.55;14.48;;;7.80;99.90;;;;;;4910380;29;20058;-87
2022/12/22 12:18:37;;;;;;;26.17;16.23;;;7.90;99.90;;;;;;4908947;29;20070;-86
2022/12/22 12:21:26;;;;;;;25.15;15.00;;;7.90;99.90;;;;;;4930010;29;20131;-87
2022/12/22 12:24:12;;;;;;;25.00;14.32;;;8.00;99.90;;;;;;4904844;29;20063;-87
2022/12/22 12:27:10;;;;;;;19.45;13.13;;;8.00;99.90;;;;;;4899404;29;20063;-87
2022/12/22 12:29:47;;;;;;;22.30;14.00;;;8.10;99.90;;;;;;4911422;29;20052;-86
2022/12/22 12:32:19;;;;;;;20.15;13.32;;;8.10;99.90;;;;;;4914075;29;20418;-87
2022/12/22 12:34:49;;;;;;;20.88;13.43;;;8.20;99.90;;;;;;4909683;29;20040;-87
2022/12/22 12:37:19;;;;;;;;;;;8.20;99.90;;;;;;4914521;29;20426;-87
2022/12/22 12:40:24;;;;;;;20.85;13.80;;;8.20;99.90;;;;;;4929179;29;19923;-86
2022/12/22 12:42:51;;;;;;;20.75;13.00;;;8.30;99.90;;;;;;4913344;29;20052;-88
2022/12/22 12:45:42;;;;;;;19.42;12.50;;;8.30;99.90;;;;;;4897520;29;20040;-88
2022/12/22 12:48:20;;;;;;;21.23;13.32;;;8.40;99.90;;;;;;4904240;29;20663;-87
2022/12/22 12:50:49;;;;;;;21.73;13.90;;;8.40;99.90;;;;;;4915295;29;20524;-87
2022/12/22 12:53:20;;;;;;;23.38;13.63;;;8.50;99.90;;;;;;4920983;28;20105;-88
2022/12/22 12:55:50;;;;;;;26.40;13.98;;;8.50;99.90;;;;;;4936832;29;20095;-88
2022/12/22 12:58:37;;;;;;;23.00;13.85;;;8.50;99.90;;;;;;4912830;29;20525;-87
2022/12/22 13:01:32;;;;;;;24.98;14.27;;;8.50;99.90;;;;;;4918168;29;20052;-88
2022/12/22 13:04:01;;;;;;;23.58;14.23;;;8.60;99.90;;;;;;4890909;29;20414;-87
2022/12/22 13:06:45;;;;;;;23.35;14.15;;;8.70;99.90;;;;;;4911946;29;20148;-86
2022/12/22 13:09:20;;;;;;;27.42;15.55;;;8.80;99.90;;;;;;4910281;29;20051;-87
2022/12/22 13:11:49;;;;;;;22.63;15.13;;;8.80;99.90;;;;;;4929274;29;20454;-87
2022/12/22 13:14:52;;;;;;;26.90;14.90;;;8.80;99.90;;;;;;4895807;29;20043;-89
2022/12/22 13:17:37;;;;;;;27.55;16.13;;;8.90;99.90;;;;;;4909032;29;20046;-86
2022/12/22 13:20:04;;;;;;;26.15;15.55;;;8.90;99.90;;;;;;4913391;29;20070;-87
2022/12/22 13:22:32;;;;;;;24.73;14.98;;;8.90;99.90;;;;;;4928843;28;20044;-87
2022/12/22 13:25:00;;;;;;;22.63;14.10;;;8.90;99.90;;;;;;4898751;29;20491;-88
2022/12/22 13:27:30;;;;;;;23.92;14.13;;;8.90;99.90;;;;;;4905636;29;20098;-88
2022/12/22 13:29:56;;;;;;;25.77;14.02;;;8.90;99.90;;;;;;4910282;29;20522;-88
2022/12/22 13:32:34;;;;;;;22.83;14.05;;;8.90;99.90;;;;;;4913303;28;20378;-86
2022/12/22 13:35:00;;;;;;;23.13;13.93;;;9.00;99.90;;;;;;4903044;29;20926;-88
2022/12/22 13:37:28;;;;;;;24.48;14.50;;;9.00;99.90;;;;;;4893683;29;20100;-87
2022/12/22 13:40:12;;;;;;;21.20;12.75;;;9.00;99.90;;;;;;4883202;29;20045;-87
2022/12/22 13:43:03;;;;;;;22.13;12.88;;;9.00;99.90;;;;;;4890124;29;20135;-87
2022/12/22 13:45:45;;;;;;;19.00;12.48;;;9.00;99.90;;;;;;4880671;29;20164;-86
2022/12/22 13:48:48;;;;;;;19.73;11.73;;;9.00;99.90;;;;;;4882060;29;20455;-87
2022/12/22 13:51:27;;;;;;;21.52;12.52;;;9.00;99.90;;;;;;4870535;29;20068;-87
2022/12/22 13:53:57;;;;;;;20.20;12.18;;;9.00;99.90;;;;;;4895813;29;20289;-87
2022/12/22 13:56:47;;;;;;;23.85;14.02;;;9.00;99.90;;;;;;4907671;29;20124;-88
2022/12/22 13:59:34;;;;;;;23.13;12.73;;;9.00;99.90;;;;;;4889116;29;20041;-87
2022/12/22 14:02:20;;;;;;;19.17;11.55;;;9.00;99.90;;;;;;4887975;29;20060;-86
2022/12/22 14:05:06;;;;;;;22.10;11.35;;;9.00;99.90;;;;;;4880154;29;20073;-87
2022/12/22 14:07:35;;;;;;;20.58;9.18;;;9.00;99.90;;;;;;4883059;29;20056;-87
2022/12/22 14:10:04;;;;;;;17.67;8.45;;;9.00;99.90;;;;;;4852650;29;20052;-86
2022/12/22 14:12:37;;;;;;;16.98;9.48;;;9.00;99.90;;;;;;4890631;29;20388;-87
2022/12/22 14:15:14;;;;;;;15.60;6.93;;;8.90;99.90;;;;;;4890969;29;20059;-87
2022/12/22 14:17:40;;;;;;;15.00;6.28;;;9.00;99.90;;;;;;4885577;29;20045;-88
2022/12/22 14:20:34;;;;;;;15.88;6.25;;;8.90;99.90;;;;;;4890517;29;20344;-88
2022/12/22 14:23:20;;;;;;;10.40;5.65;;;9.00;99.90;;;;;;4886895;29;20385;-88
2022/12/22 14:25:48;;;;;;;13.82;5.68;;;8.90;99.90;;;;;;4886334;29;20481;-88
2022/12/22 14:28:33;;;;;;;12.70;5.82;;;9.00;99.90;;;;;;4879871;29;20396;-87
2022/12/22 14:31:04;;;;;;;15.20;5.60;;;8.90;99.90;;;;;;4873969;29;20056;-88
2022/12/22 14:33:33;;;;;;;13.43;5.65;;;8.90;99.90;;;;;;4899909;29;20056;-88
2022/12/22 14:36:27;;;;;;;13.48;6.85;;;8.90;99.90;;;;;;4924536;29;20426;-87
2022/12/22 14:38:55;;;;;;;14.18;7.97;;;8.90;99.90;;;;;;4915844;29;20082;-87
2022/12/22 14:41:40;;;;;;;17.95;8.55;;;8.90;99.90;;;;;;4919523;29;20043;-88
2022/12/22 14:44:36;;;;;;;14.48;8.40;;;8.90;99.90;;;;;;4916561;29;20047;-88
2022/12/22 14:47:16;;;;;;;16.27;7.85;;;8.90;99.90;;;;;;4909689;29;20050;-87
2022/12/22 14:49:57;;;;;;;13.60;7.30;;;8.80;99.90;;;;;;4914820;29;20054;-88
2022/12/22 14:52:36;;;;;;;13.45;6.32;;;8.80;99.90;;;;;;4912848;29;20048;-87
2022/12/22 14:55:05;;;;;;;12.23;6.68;;;8.80;99.90;;;;;;4923775;29;20056;-87
2022/12/22 14:57:35;;;;;;;10.52;5.60;;;8.80;99.90;;;;;;4921796;29;20044;-88
2022/12/22 15:00:27;;;;;;;16.00;7.07;;;8.80;99.90;;;;;;4899048;29;20047;-87
2022/12/22 15:02:58;;;;;;;12.80;7.13;;;8.70;99.90;;;;;;4896200;29;20059;-87
2022/12/22 15:05:37;;;;;;;15.77;8.07;;;8.70;99.90;;;;;;4896207;29;20508;-88
2022/12/22 15:08:05;;;;;;;13.23;7.40;;;8.70;99.90;;;;;;4903020;29;20048;-87
2022/12/22 15:10:49;;;;;;;15.45;7.93;;;8.70;99.90;;;;;;4917735;29;20482;-87
2022/12/22 15:13:21;;;;;;;14.45;7.93;;;8.70;99.90;;;;;;4902630;29;20044;-88
2022/12/22 15:15:49;;;;;;;15.25;7.72;;;8.70;99.90;;;;;;4914945;29;20718;-88
2022/12/22 15:18:15;;;;;;;11.57;6.70;;;8.60;99.90;;;;;;4922197;29;20407;-88
2022/12/22 15:20:41;;;;;;;13.10;7.63;;;8.60;99.90;;;;;;4914228;29;20054;-88
2022/12/22 15:23:13;;;;;;;14.85;7.50;;;8.60;99.90;;;;;;4896739;29;20123;-88
2022/12/22 15:25:40;;;;;;;16.08;7.47;;;8.60;99.90;;;;;;4912200;29;20055;-88
2022/12/22 15:28:06;;;;;;;15.57;7.60;;;8.60;99.90;;;;;;4908955;29;20052;-87
2022/12/22 15:30:35;;;;;;;13.00;6.95;;;8.60;99.90;;;;;;4892804;29;20070;-88
2022/12/22 15:33:01;;;;;;;17.30;8.15;;;8.50;99.90;;;;;;4911087;29;20436;-87
2022/12/22 15:35:33;;;;;;;14.10;7.32;;;8.50;99.90;;;;;;4898438;29;20056;-86
2022/12/22 15:38:00;;;;;;;17.40;9.55;;;8.50;99.90;;;;;;4912975;29;20879;-88
2022/12/22 15:40:27;;;;;;;13.25;8.85;;;8.50;99.90;;;;;;4922053;28;20039;-87
2022/12/22 15:42:53;;;;;;;15.85;10.07;;;8.50;99.90;;;;;;4927625;29;20047;-87
2022/12/22 15:45:21;;;;;;;13.95;10.20;;;8.50;99.90;;;;;;4921783;29;20307;-87
2022/12/22 15:47:51;;;;;;;14.38;11.00;;;8.50;99.90;;;;;;4897352;29;20054;-87
2022/12/22 15:50:20;;;;;;;15.00;12.05;;;8.50;99.90;;;;;;4920343;28;20047;-87
2022/12/22 15:52:53;;;;;;;13.80;11.35;;;8.50;99.90;;;;;;4932498;28;20031;-88
2022/12/22 15:55:26;;;;;;;14.85;11.77;;;8.50;99.90;;;;;;4928528;29;20521;-88
2022/12/22 15:57:56;;;;;;;16.27;12.20;;;8.50;99.90;;;;;;4911083;29;20446;-88
2022/12/22 16:00:22;;;;;;;13.73;12.32;;;8.50;99.90;;;;;;4896228;29;20055;-88
2022/12/22 16:02:48;;;;;;;14.32;12.85;;;8.50;99.90;;;;;;4904462;29;20052;-88
2022/12/22 16:05:15;;;;;;;19.48;13.82;;;8.40;99.90;;;;;;4911031;29;20111;-87
2022/12/22 16:07:42;;;;;;;18.90;14.00;;;8.50;99.90;;;;;;4907172;28;20110;-88
2022/12/22 16:10:25;;;;;;;16.25;13.18;;;8.50;99.90;;;;;;4925840;29;20047;-88
2022/12/22 16:12:54;;;;;;;16.20;14.02;;;8.50;99.90;;;;;;4906351;29;20470;-87
2022/12/22 16:15:21;;;;;;;17.48;14.02;;;8.50;99.90;;;;;;4918314;28;20086;-87
2022/12/22 16:17:51;;;;;;;17.33;13.60;;;8.50;99.90;;;;;;4907414;29;20056;-88
2022/12/22 16:20:18;;;;;;;17.15;13.25;;;8.50;99.90;;;;;;4911555;29;20068;-87
2022/12/22 16:22:44;;;;;;;19.80;16.17;;;8.50;99.90;;;;;;4913186;29;20564;-88
2022/12/22 16:25:14;;;;;;;22.40;15.30;;;8.50;99.90;;;;;;4925897;29;20115;-88
2022/12/22 16:27:40;;;;;;;;;;;8.50;99.90;;;;;;4931403;29;20051;-87
2022/12/22 16:30:14;;;;;;;20.33;16.85;;;8.50;99.90;;;;;;4912363;29;19931;-88
2022/12/22 16:32:41;;;;;;;20.73;16.90;;;8.40;99.90;;;;;;4905411;29;20491;-87
2022/12/22 16:35:10;;;;;;;18.42;16.40;;;8.40;99.90;;;;;;4908823;29;20059;-87
2022/12/22 16:37:37;;;;;;;20.92;18.67;;;8.40;99.90;;;;;;4907308;28;20532;-87